Time;durP1;ratioP1;P1;durP2;ratioP2;P2;SDS_P1;SDS_P2;PMS_P1;PMS_P2;Temp;Humidity;BMP_temperature;BMP_pressure;BME280_temperature;BME280_humidity;BME280_pressure;Samples;Min_cycle;Max_cycle;Signal;HPM_P1;HPM_P2
2021/12/27 00:00:44;;;;;;;;;1.40;1.40;;;;;5.00;80.00;98576.44;5089049;28;8841;-59
2021/12/27 00:03:12;;;;;;;;;0.40;0.00;;;;;5.00;79.90;98574.66;5090301;28;8841;-59
2021/12/27 00:05:40;;;;;;;;;1.80;1.80;;;;;5.02;80.16;98574.56;5090617;28;8958;-59
2021/12/27 00:08:08;;;;;;;;;1.00;1.00;;;;;5.03;80.11;98587.59;5088204;28;8856;-59
2021/12/27 00:10:35;;;;;;;;;2.20;2.20;;;;;5.02;79.99;98575.38;5089187;28;8850;-60
2021/12/27 00:13:05;;;;;;;;;0.60;0.60;;;;;5.02;79.87;98574.56;5090053;28;8867;-59
2021/12/27 00:15:33;;;;;;;;;2.20;2.20;;;;;5.02;80.05;98571.91;5090798;28;8861;-60
2021/12/27 00:18:00;;;;;;;;;1.40;1.40;;;;;5.03;80.28;98578.88;5089637;28;8880;-59
2021/12/27 00:20:28;;;;;;;;;1.00;1.00;;;;;5.02;80.50;98566.66;5090366;28;8822;-60
2021/12/27 00:22:56;;;;;;;;;1.00;1.00;;;;;5.01;80.35;98568.44;5087722;28;9129;-60
2021/12/27 00:25:26;;;;;;;;;2.20;2.20;;;;;4.98;80.18;98566.03;5089821;28;8871;-60
2021/12/27 00:27:54;;;;;;;;;1.00;0.00;;;;;4.95;80.01;98568.91;5091323;28;8838;-60
2021/12/27 00:30:22;;;;;;;;;0.80;0.60;;;;;4.91;80.34;98570.13;5090217;28;9736;-60
2021/12/27 00:32:50;;;;;;;;;1.00;1.00;;;;;4.89;80.17;98571.19;5088367;28;8845;-59
2021/12/27 00:35:18;;;;;;;;;3.00;1.00;;;;;4.89;80.76;98563.28;5090118;28;8938;-60
2021/12/27 00:37:45;;;;;;;;;2.60;1.00;;;;;4.88;80.89;98554.53;5089545;28;8861;-59
2021/12/27 00:40:13;;;;;;;;;1.80;1.80;;;;;4.87;80.88;98562.59;5089184;28;8892;-60
2021/12/27 00:42:41;;;;;;;;;1.00;1.00;;;;;4.87;81.02;98549.41;5090868;28;8865;-59
2021/12/27 00:45:09;;;;;;;;;3.00;3.00;;;;;4.86;80.88;98542.44;5090425;28;8868;-59
2021/12/27 00:47:36;;;;;;;;;2.20;0.20;;;;;4.88;81.06;98543.16;5090217;28;8845;-59
2021/12/27 00:50:04;;;;;;;;;3.00;1.00;;;;;4.92;81.07;98547.22;5089554;28;8849;-60
2021/12/27 00:52:35;;;;;;;;;1.00;1.00;;;;;4.91;81.02;98545.53;5087989;28;8854;-59
2021/12/27 00:55:03;;;;;;;;;3.20;3.20;;;;;4.90;80.82;98530.69;5089063;28;8943;-59
2021/12/27 00:57:31;;;;;;;;;1.00;1.00;;;;;4.92;81.03;98531.38;5090129;28;8956;-59
2021/12/27 00:59:58;;;;;;;;;2.20;2.20;;;;;4.92;80.83;98534.88;5089635;28;8845;-59
2021/12/27 01:02:26;;;;;;;;;3.80;3.00;;;;;4.92;80.74;98536.66;5089117;28;8964;-59
2021/12/27 01:04:54;;;;;;;;;2.20;2.20;;;;;4.92;80.88;98532.25;5091945;28;8868;-60
2021/12/27 01:07:22;;;;;;;;;2.20;2.20;;;;;4.92;81.28;98524.31;5094858;28;8821;-59
2021/12/27 01:10:03;;;;;;;;;1.80;1.00;;;;;4.91;81.04;98530.56;5093918;28;8850;-59
2021/12/27 01:12:33;;;;;;;;;3.00;3.00;;;;;4.89;81.37;98523.72;5094152;28;8849;-59
2021/12/27 01:15:10;;;;;;;;;1.00;1.00;;;;;4.89;81.26;98526.38;5093462;28;8856;-59
2021/12/27 01:17:38;;;;;;;;;2.60;2.60;;;;;4.88;81.64;98527.34;5091863;28;8853;-59
2021/12/27 01:20:05;;;;;;;;;1.40;1.00;;;;;4.87;81.52;98530.94;5093580;28;8960;-59
2021/12/27 01:22:34;;;;;;;;;3.00;3.00;;;;;4.85;81.67;98541.59;5092294;28;8857;-59
2021/12/27 01:25:01;;;;;;;;;1.00;1.00;;;;;4.84;81.76;98531.16;5093211;28;8838;-59
2021/12/27 01:27:29;;;;;;;;;1.00;1.00;;;;;4.82;81.62;98533.94;5094444;28;8833;-59
2021/12/27 01:29:57;;;;;;;;;1.40;1.00;;;;;4.81;81.47;98529.63;5093692;28;8846;-59
2021/12/27 01:32:29;;;;;;;;;1.00;1.00;;;;;4.81;82.07;98526.13;5093153;28;8919;-59
2021/12/27 01:34:57;;;;;;;;;4.40;4.00;;;;;4.81;81.41;98526.13;5075844;28;9650;-59
2021/12/27 01:37:24;;;;;;;;;4.00;3.00;;;;;4.78;81.75;98524.56;5092006;28;8876;-59
2021/12/27 01:39:52;;;;;;;;;1.00;1.00;;;;;4.79;82.01;98531.53;5093722;28;8834;-59
2021/12/27 01:42:20;;;;;;;;;3.00;3.00;;;;;4.77;82.06;98543.16;5094585;28;9546;-58
2021/12/27 01:44:48;;;;;;;;;1.00;1.00;;;;;4.76;81.67;98541.47;5093812;28;8846;-58
2021/12/27 01:47:15;;;;;;;;;0.80;0.80;;;;;4.75;82.00;98540.66;5093477;28;8860;-59
2021/12/27 01:49:43;;;;;;;;;3.00;1.00;;;;;4.75;81.85;98540.66;5092790;28;8989;-59
2021/12/27 01:52:11;;;;;;;;;1.00;0.40;;;;;4.75;82.06;98540.66;5092113;28;8838;-59
2021/12/27 01:54:39;;;;;;;;;3.80;3.80;;;;;4.75;82.08;98524.84;5092749;28;8864;-59
2021/12/27 01:57:06;;;;;;;;;0.00;0.00;;;;;4.76;81.80;98517.75;5092528;28;8838;-59
2021/12/27 01:59:34;;;;;;;;;2.20;2.20;;;;;4.78;81.76;98529.84;5091596;28;8838;-59
2021/12/27 02:02:02;;;;;;;;;4.00;4.00;;;;;4.79;81.74;98528.06;5092004;28;8842;-59
2021/12/27 02:04:33;;;;;;;;;1.00;0.60;;;;;4.81;81.92;98526.13;5093071;28;8853;-59
2021/12/27 02:07:01;;;;;;;;;2.20;2.20;;;;;4.83;81.70;98529.47;5091524;28;8942;-59
2021/12/27 02:09:38;;;;;;;;;3.00;3.00;;;;;4.83;81.84;98526.84;5092760;28;8911;-59
2021/12/27 02:12:05;;;;;;;;;0.00;0.00;;;;;4.83;81.79;98532.13;5092445;28;8972;-59
2021/12/27 02:14:34;;;;;;;;;2.60;2.60;;;;;4.82;81.99;98526.03;5093379;28;8956;-59
2021/12/27 02:17:01;;;;;;;;;1.00;1.00;;;;;4.83;81.99;98524.22;5092756;28;9713;-59
2021/12/27 02:19:29;;;;;;;;;2.20;2.20;;;;;4.81;81.98;98520.88;5092770;28;8845;-59
2021/12/27 02:21:57;;;;;;;;;1.00;1.00;;;;;4.82;81.74;98528.66;5092273;28;8867;-59
2021/12/27 02:24:25;;;;;;;;;2.60;2.60;;;;;4.85;82.03;98522.28;5092662;28;8830;-59
2021/12/27 02:26:52;;;;;;;;;2.60;1.40;;;;;4.86;82.08;98516.91;5093507;28;8850;-59
2021/12/27 02:29:20;;;;;;;;;1.80;1.80;;;;;4.87;81.47;98517.75;5093435;28;8854;-58
2021/12/27 02:31:50;;;;;;;;;3.20;3.20;;;;;4.89;81.94;98510.56;5092753;28;8846;-59
2021/12/27 02:34:18;;;;;;;;;0.20;0.20;;;;;4.88;81.76;98506.25;5092937;28;8834;-59
2021/12/27 02:36:46;;;;;;;;;3.00;3.00;;;;;4.90;81.87;98510.44;5091949;28;8868;-59
2021/12/27 02:39:14;;;;;;;;;1.00;1.00;;;;;4.88;81.42;98504.41;5091561;28;8814;-59
2021/12/27 02:41:43;;;;;;;;;3.20;2.80;;;;;4.87;81.90;98499.28;5092533;28;8825;-59
2021/12/27 02:44:10;;;;;;;;;2.20;2.20;;;;;4.87;81.72;98502.75;5092862;28;8866;-59
2021/12/27 02:46:39;;;;;;;;;0.20;0.00;;;;;4.84;82.41;98497.72;5092511;28;8959;-59
2021/12/27 02:49:07;;;;;;;;;2.60;2.60;;;;;4.83;82.09;98500.47;5091894;28;8918;-59
2021/12/27 02:51:35;;;;;;;;;3.00;2.60;;;;;4.80;82.13;98500.75;5091834;28;8856;-59
2021/12/27 02:54:02;;;;;;;;;1.00;1.00;;;;;4.79;81.81;98491.16;5092215;28;8988;-59
2021/12/27 02:56:31;;;;;;;;;1.00;1.00;;;;;4.77;82.43;98487.78;5092139;28;8846;-59
2021/12/27 02:58:58;;;;;;;;;2.20;1.80;;;;;4.75;82.19;98493.19;5092761;28;8864;-59
2021/12/27 03:01:26;;;;;;;;;1.80;1.80;;;;;4.74;82.49;98495.94;5091135;28;8842;-58
2021/12/27 03:03:55;;;;;;;;;3.00;2.20;;;;;4.75;82.76;98492.34;5092281;28;8888;-59
2021/12/27 03:06:22;;;;;;;;;1.00;1.00;;;;;4.75;82.54;98487.94;5092081;28;8965;-59
2021/12/27 03:08:51;;;;;;;;;1.00;1.00;;;;;4.76;82.97;98486.09;5090837;28;8814;-59
2021/12/27 03:11:19;;;;;;;;;1.00;1.00;;;;;4.77;82.82;98483.34;5091785;28;8985;-59
2021/12/27 03:13:47;;;;;;;;;2.60;2.60;;;;;4.77;82.52;98482.50;5092063;28;8866;-59
2021/12/27 03:16:14;;;;;;;;;2.20;1.80;;;;;4.76;82.19;98478.19;5091839;28;8866;-59
2021/12/27 03:18:42;;;;;;;;;3.20;3.20;;;;;4.75;82.67;98476.53;5090838;28;8841;-58
2021/12/27 03:21:10;;;;;;;;;3.40;3.00;;;;;4.75;82.79;98473.88;5092408;28;8923;-59
2021/12/27 03:23:38;;;;;;;;;3.00;3.00;;;;;4.73;82.40;98463.47;5091617;28;8976;-59
2021/12/27 03:26:06;;;;;;;;;1.00;1.00;;;;;4.74;83.14;98470.44;5090180;28;8979;-59
2021/12/27 03:28:33;;;;;;;;;0.80;0.80;;;;;4.73;82.87;98468.72;5091504;28;8897;-59
2021/12/27 03:31:01;;;;;;;;;1.00;1.00;;;;;4.73;82.65;98478.47;5091436;28;8891;-59
2021/12/27 03:33:29;;;;;;;;;0.20;0.00;;;;;4.73;82.86;98473.19;5091441;28;8833;-59
2021/12/27 03:36:01;;;;;;;;;3.00;3.00;;;;;4.72;83.02;98472.31;5090774;28;9508;-59
2021/12/27 03:38:29;;;;;;;;;1.80;1.40;;;;;4.73;82.94;98467.91;5092461;28;8846;-59
2021/12/27 03:40:57;;;;;;;;;1.00;0.40;;;;;4.73;83.10;98468.72;5091539;28;8833;-60
2021/12/27 03:43:25;;;;;;;;;4.00;4.00;;;;;4.73;82.78;98465.28;5091614;28;8837;-59
2021/12/27 03:45:52;;;;;;;;;1.00;1.00;;;;;4.74;82.81;98470.44;5091158;28;8846;-60
2021/12/27 03:48:20;;;;;;;;;1.00;1.00;;;;;4.75;82.92;98466.84;5091834;28;8854;-60
2021/12/27 03:50:48;;;;;;;;;1.40;1.40;;;;;4.77;82.63;98471.97;5091400;28;8846;-59
2021/12/27 03:53:16;;;;;;;;;2.60;1.00;;;;;4.78;83.14;98471.03;5091488;28;8830;-59
2021/12/27 03:55:43;;;;;;;;;0.20;0.00;;;;;4.79;82.88;98481.44;5090901;28;9508;-59
2021/12/27 03:58:22;;;;;;;;;3.40;3.40;;;;;4.80;82.94;98479.66;5090228;28;8846;-59
2021/12/27 04:01:01;;;;;;;;;0.40;0.40;;;;;4.82;83.05;98472.44;5090988;28;8850;-59
2021/12/27 04:03:29;;;;;;;;;1.80;1.80;;;;;4.81;82.89;98471.63;5090712;28;8860;-59
2021/12/27 04:05:57;;;;;;;;;1.00;0.40;;;;;4.82;82.58;98468.03;5090236;28;8846;-59
2021/12/27 04:08:24;;;;;;;;;3.00;3.00;;;;;4.83;82.97;98469.69;5091022;28;8857;-59
2021/12/27 04:10:53;;;;;;;;;1.00;1.00;;;;;4.86;83.39;98465.97;5089171;28;8869;-59
2021/12/27 04:13:21;;;;;;;;;1.00;1.00;;;;;4.87;82.80;98457.09;5091121;28;8844;-59
2021/12/27 04:15:49;;;;;;;;;2.60;2.60;;;;;4.87;83.00;98457.09;5089334;28;8884;-59
2021/12/27 04:18:17;;;;;;;;;3.00;1.80;;;;;4.90;83.03;98448.94;5091191;28;8987;-58
2021/12/27 04:20:45;;;;;;;;;1.80;1.80;;;;;4.93;82.93;98459.25;5089731;28;8846;-59
2021/12/27 04:23:13;;;;;;;;;1.00;1.00;;;;;4.94;82.92;98450.38;5089543;28;8854;-58
2021/12/27 04:25:41;;;;;;;;;3.00;3.00;;;;;4.96;82.79;98451.94;5090616;28;8838;-59
2021/12/27 04:28:08;;;;;;;;;3.00;1.00;;;;;5.00;82.82;98453.34;5090557;28;8845;-59
2021/12/27 04:30:36;;;;;;;;;3.20;3.00;;;;;5.05;82.51;98450.31;5089795;28;8837;-59
2021/12/27 04:33:04;;;;;;;;;1.00;1.00;;;;;5.08;83.03;98453.56;5089344;28;8842;-58
2021/12/27 04:35:32;;;;;;;;;2.60;2.60;;;;;5.12;83.07;98447.09;5091506;28;8923;-59
2021/12/27 04:37:59;;;;;;;;;4.00;3.40;;;;;5.15;82.93;98440.69;5092718;28;8838;-59
2021/12/27 04:40:27;;;;;;;;;3.00;1.00;;;;;5.18;82.25;98443.09;5095116;28;8822;-59
2021/12/27 04:42:55;;;;;;;;;2.20;2.20;;;;;5.21;82.67;98448.13;5094556;28;8838;-59
2021/12/27 04:45:22;;;;;;;;;1.00;1.00;;;;;5.23;82.75;98447.03;5094016;28;8826;-59
2021/12/27 04:47:50;;;;;;;;;1.00;1.00;;;;;5.25;82.26;98445.09;5095061;28;8850;-59
2021/12/27 04:50:18;;;;;;;;;1.40;1.00;;;;;5.27;82.50;98443.19;5094105;28;8850;-59
2021/12/27 04:52:47;;;;;;;;;0.00;0.00;;;;;5.29;82.67;98437.75;5094826;28;8846;-59
2021/12/27 04:55:14;;;;;;;;;3.00;3.00;;;;;5.30;82.42;98437.66;5094701;28;8851;-59
2021/12/27 04:57:42;;;;;;;;;1.00;1.00;;;;;5.29;82.77;98433.34;5093827;28;8862;-59
2021/12/27 05:00:10;;;;;;;;;0.00;0.00;;;;;5.31;82.70;98431.41;5093456;28;8850;-59
2021/12/27 05:02:38;;;;;;;;;1.80;1.00;;;;;5.30;82.64;98428.88;5094348;28;8834;-59
2021/12/27 05:05:05;;;;;;;;;1.00;1.00;;;;;5.31;82.49;98430.59;5093395;28;8883;-59
2021/12/27 05:07:33;;;;;;;;;1.80;1.80;;;;;5.31;82.39;98433.22;5092869;28;8964;-59
2021/12/27 05:10:00;;;;;;;;;1.00;1.00;;;;;5.31;82.40;98433.22;5092898;28;8829;-59
2021/12/27 05:12:28;;;;;;;;;2.20;2.20;;;;;5.28;82.72;98421.13;5093686;28;8845;-59
2021/12/27 05:14:56;;;;;;;;;1.00;1.00;;;;;5.26;82.18;98423.03;5092716;28;8829;-59
2021/12/27 05:17:24;;;;;;;;;1.00;1.00;;;;;5.24;82.76;98416.22;5093919;28;8857;-59
2021/12/27 05:19:51;;;;;;;;;1.00;1.00;;;;;5.22;82.89;98415.47;5093834;28;8841;-59
2021/12/27 05:22:19;;;;;;;;;2.20;1.80;;;;;5.19;82.81;98410.47;5092681;28;8842;-59
2021/12/27 05:24:47;;;;;;;;;1.00;1.00;;;;;5.17;82.79;98404.50;5092351;28;8928;-59
2021/12/27 05:27:15;;;;;;;;;4.00;4.00;;;;;5.14;82.93;98405.56;5093372;28;8853;-59
2021/12/27 05:29:43;;;;;;;;;3.00;2.60;;;;;5.13;82.77;98395.16;5092685;28;8875;-59
2021/12/27 05:32:11;;;;;;;;;3.60;2.20;;;;;5.12;82.92;98414.56;5092448;28;8849;-59
2021/12/27 05:34:39;;;;;;;;;3.40;3.00;;;;;5.10;83.01;98408.59;5093583;28;9030;-59
2021/12/27 05:37:09;;;;;;;;;0.00;0.00;;;;;5.06;83.09;98413.28;5092634;28;8858;-59
2021/12/27 05:39:37;;;;;;;;;3.00;1.40;;;;;5.06;83.48;98418.56;5092894;28;8858;-59
2021/12/27 05:42:04;;;;;;;;;0.20;0.00;;;;;5.08;83.41;98413.16;5092648;28;8864;-59
2021/12/27 05:44:32;;;;;;;;;2.20;1.00;;;;;5.11;83.38;98420.81;5092629;28;8879;-59
2021/12/27 05:47:00;;;;;;;;;1.00;1.00;;;;;5.14;82.93;98416.13;5093304;28;8882;-59
2021/12/27 05:49:28;;;;;;;;;4.00;3.00;;;;;5.18;83.04;98422.81;5091321;28;8935;-59
2021/12/27 05:51:55;;;;;;;;;1.00;1.00;;;;;5.23;83.25;98409.28;5091033;28;8852;-59
2021/12/27 05:54:23;;;;;;;;;1.00;1.00;;;;;5.27;82.92;98418.59;5093041;28;8869;-59
2021/12/27 05:56:51;;;;;;;;;1.40;1.40;;;;;5.28;82.97;98412.34;5092259;28;8846;-59
2021/12/27 05:59:19;;;;;;;;;1.80;1.00;;;;;5.30;82.86;98410.41;5092432;28;8849;-59
2021/12/27 06:01:46;;;;;;;;;3.00;3.00;;;;;5.31;83.06;98407.66;5090937;28;8830;-59
2021/12/27 06:04:14;;;;;;;;;1.00;1.00;;;;;5.31;82.84;98409.47;5091212;28;8838;-59
2021/12/27 06:06:43;;;;;;;;;0.60;0.60;;;;;5.30;83.09;98398.06;5092760;28;8854;-59
2021/12/27 06:09:10;;;;;;;;;0.20;0.20;;;;;5.30;83.05;98397.22;5091740;28;8918;-59
2021/12/27 06:11:38;;;;;;;;;2.60;1.00;;;;;5.29;82.97;98393.75;5091902;28;8845;-59
2021/12/27 06:14:06;;;;;;;;;0.20;0.20;;;;;5.28;83.13;98401.78;5091955;28;8868;-59
2021/12/27 06:16:34;;;;;;;;;5.20;5.20;;;;;5.24;83.14;98397.75;5091866;28;8861;-59
2021/12/27 06:19:01;;;;;;;;;6.20;4.40;;;;;5.20;82.62;98394.53;5091765;28;8834;-59
2021/12/27 06:21:30;;;;;;;;;2.40;2.20;;;;;5.15;82.77;98390.56;5090547;28;8863;-59
2021/12/27 06:23:58;;;;;;;;;1.00;1.00;;;;;5.08;83.25;98389.44;5089861;28;8834;-59
2021/12/27 06:26:26;;;;;;;;;3.00;3.00;;;;;5.02;83.02;98388.09;5089598;28;8830;-59
2021/12/27 06:28:54;;;;;;;;;0.00;0.00;;;;;4.98;83.51;98388.50;5091743;28;8850;-59
2021/12/27 06:31:22;;;;;;;;;1.00;1.00;;;;;4.95;83.37;98388.75;5089513;28;9734;-58
2021/12/27 06:33:50;;;;;;;;;1.00;1.00;;;;;4.92;83.39;98386.34;5090781;28;9626;-59
2021/12/27 06:36:18;;;;;;;;;0.00;0.00;;;;;4.89;83.53;98384.81;5089198;28;8838;-59
2021/12/27 06:38:45;;;;;;;;;3.20;2.60;;;;;4.88;83.44;98393.66;5089446;28;8850;-59
2021/12/27 06:41:13;;;;;;;;;3.00;3.00;;;;;4.86;83.95;98394.78;5087855;28;8866;-59
2021/12/27 06:43:41;;;;;;;;;3.20;2.60;;;;;4.83;83.85;98395.88;5089833;28;8830;-59
2021/12/27 06:46:09;;;;;;;;;3.20;3.00;;;;;4.81;83.72;98396.94;5088560;28;8927;-59
2021/12/27 06:48:36;;;;;;;;;3.00;3.00;;;;;4.78;84.15;98399.84;5088625;28;9720;-59
2021/12/27 06:51:04;;;;;;;;;1.00;1.00;;;;;4.75;83.89;98397.44;5088578;28;8973;-59
2021/12/27 06:53:32;;;;;;;;;1.00;1.00;;;;;4.73;83.52;98399.38;5089149;28;8850;-59
2021/12/27 06:56:02;;;;;;;;;1.80;1.40;;;;;4.74;83.74;98395.75;5088068;28;8838;-59
2021/12/27 06:58:29;;;;;;;;;1.40;1.00;;;;;4.75;83.64;98389.53;5090491;28;8849;-59
2021/12/27 07:00:57;;;;;;;;;3.00;1.00;;;;;4.75;83.48;98398.28;5088050;28;8845;-59
2021/12/27 07:03:25;;;;;;;;;2.20;2.20;;;;;4.75;83.58;98384.25;5087891;28;8842;-59
2021/12/27 07:05:55;;;;;;;;;1.00;0.60;;;;;4.77;83.73;98380.53;5086458;28;8962;-59
2021/12/27 07:08:23;;;;;;;;;3.00;2.20;;;;;4.81;83.42;98386.41;5089623;28;8888;-59
2021/12/27 07:10:51;;;;;;;;;3.00;3.00;;;;;4.83;83.58;98387.97;5087580;28;8846;-59
2021/12/27 07:13:19;;;;;;;;;3.20;3.00;;;;;4.85;84.11;98388.66;5088539;28;8942;-58
2021/12/27 07:15:46;;;;;;;;;1.00;1.00;;;;;4.87;83.51;98397.28;5087938;28;8868;-58
2021/12/27 07:18:16;;;;;;;;;3.00;3.00;;;;;4.92;83.55;98400.38;5085939;28;8842;-59
2021/12/27 07:20:44;;;;;;;;;3.20;3.20;;;;;4.95;83.47;98396.66;5087581;28;9559;-59
2021/12/27 07:23:12;;;;;;;;;3.80;3.80;;;;;4.97;83.36;98397.38;5087555;28;8853;-59
2021/12/27 07:25:39;;;;;;;;;3.40;3.00;;;;;4.96;83.68;98388.63;5088192;28;8845;-59
2021/12/27 07:28:07;;;;;;;;;3.40;3.40;;;;;4.96;82.96;98398.34;5089501;28;8862;-59
2021/12/27 07:30:34;;;;;;;;;2.60;2.60;;;;;4.97;83.22;98402.66;5082428;28;8845;-59
2021/12/27 07:33:02;;;;;;;;;6.00;4.40;;;;;4.97;83.30;98398.22;5086675;28;8903;-59
2021/12/27 07:35:30;;;;;;;;;3.40;3.40;;;;;5.00;83.42;98397.09;5088301;28;8841;-59
2021/12/27 07:37:58;;;;;;;;;3.20;3.00;;;;;5.01;83.17;98401.44;5087793;28;8850;-59
2021/12/27 07:40:26;;;;;;;;;2.60;2.60;;;;;5.03;83.26;98397.69;5088121;28;8866;-58
2021/12/27 07:42:54;;;;;;;;;0.00;0.00;;;;;5.06;83.09;98401.88;5086206;28;8829;-59
2021/12/27 07:45:21;;;;;;;;;3.60;3.60;;;;;5.12;83.31;98393.47;5088724;28;8857;-58
2021/12/27 07:47:49;;;;;;;;;3.00;3.00;;;;;5.17;83.27;98386.84;5087020;28;8845;-59
2021/12/27 07:50:17;;;;;;;;;1.80;1.40;;;;;5.23;83.00;98386.34;5086204;28;8826;-58
2021/12/27 07:52:52;;;;;;;;;3.60;3.60;;;;;5.27;82.43;98379.88;5084979;28;8850;-59
2021/12/27 07:55:20;;;;;;;;;6.00;3.80;;;;;5.29;82.98;98383.19;5085025;28;8838;-59
2021/12/27 07:57:48;;;;;;;;;3.00;3.00;;;;;5.32;82.81;98376.84;5082484;28;8838;-59
2021/12/27 08:00:15;;;;;;;;;3.00;2.60;;;;;5.35;82.93;98373.94;5085509;28;8850;-58
2021/12/27 08:02:43;;;;;;;;;0.80;0.80;;;;;5.39;82.78;98380.66;5085457;28;8854;-59
2021/12/27 08:05:17;;;;;;;;;2.60;2.60;;;;;5.43;82.78;98374.13;5086658;28;8842;-58
2021/12/27 08:07:44;;;;;;;;;3.00;3.00;;;;;5.47;82.63;98379.00;5086054;28;8842;-58
2021/12/27 08:10:12;;;;;;;;;3.60;3.00;;;;;5.52;82.54;98379.47;5085698;28;8841;-58
2021/12/27 08:12:40;;;;;;;;;0.60;0.60;;;;;5.54;82.92;98388.09;5084891;28;8857;-58
2021/12/27 08:15:08;;;;;;;;;3.00;3.00;;;;;5.51;82.80;98377.81;5082419;28;8885;-59
2021/12/27 08:17:35;;;;;;;;;4.00;3.00;;;;;5.49;82.61;98379.75;5085259;28;8857;-59
2021/12/27 08:20:04;;;;;;;;;1.80;1.80;;;;;5.48;82.83;98379.88;5084747;28;8858;-59
2021/12/27 08:22:31;;;;;;;;;4.80;4.80;;;;;5.47;82.99;98376.38;5084143;28;8903;-58
2021/12/27 08:24:59;;;;;;;;;3.80;3.80;;;;;5.48;82.91;98383.31;5083342;28;8856;-59
2021/12/27 08:27:27;;;;;;;;;4.00;4.00;;;;;5.50;83.22;98396.41;5086139;28;8834;-59
2021/12/27 08:29:55;;;;;;;;;3.00;3.00;;;;;5.55;82.82;98397.69;5083825;28;8846;-59
2021/12/27 08:32:22;;;;;;;;;1.00;1.00;;;;;5.59;83.05;98387.69;5083601;28;9775;-59
2021/12/27 08:34:50;;;;;;;;;6.00;4.40;;;;;5.61;82.43;98377.88;5083080;28;8858;-58
2021/12/27 08:37:18;;;;;;;;;1.00;1.00;;;;;5.61;82.39;98377.88;5085128;28;8853;-59
2021/12/27 08:39:45;;;;;;;;;3.60;3.60;;;;;5.63;82.58;98381.22;5083546;28;8858;-59
2021/12/27 08:42:13;;;;;;;;;3.40;3.00;;;;;5.65;82.38;98387.19;5086107;28;8853;-59
2021/12/27 08:44:41;;;;;;;;;4.00;4.00;;;;;5.67;82.54;98382.59;5084525;28;8834;-59
2021/12/27 08:47:10;;;;;;;;;5.20;4.40;;;;;5.70;82.71;98383.19;5082678;28;8862;-58
2021/12/27 08:49:38;;;;;;;;;1.00;1.00;;;;;5.73;82.58;98375.03;5081255;28;8830;-59
2021/12/27 08:52:26;;;;;;;;;3.80;3.00;;;;;5.78;82.53;98369.34;5082369;28;8854;-59
2021/12/27 08:54:54;;;;;;;;;3.00;3.00;;;;;5.83;82.36;98364.53;5082810;28;8854;-59
2021/12/27 08:57:22;;;;;;;;;1.80;1.80;;;;;5.88;81.93;98359.69;5081720;28;8860;-59
2021/12/27 08:59:49;;;;;;;;;4.80;4.00;;;;;5.93;82.24;98354.84;5082631;28;8872;-59
2021/12/27 09:02:17;;;;;;;;;4.40;4.00;;;;;5.98;82.20;98365.84;5083262;28;8854;-59
2021/12/27 09:04:45;;;;;;;;;2.60;1.80;;;;;6.02;82.23;98354.91;5084116;28;8953;-59
2021/12/27 09:07:13;;;;;;;;;4.00;1.00;;;;;6.03;82.20;98359.22;5082062;28;8872;-59
2021/12/27 09:09:41;;;;;;;;;3.00;3.00;;;;;6.05;82.17;98364.34;5081342;28;8860;-59
2021/12/27 09:12:08;;;;;;;;;3.00;1.00;;;;;6.15;82.33;98367.88;5076616;28;8845;-59
2021/12/27 09:14:36;;;;;;;;;1.00;1.00;;;;;6.30;81.97;98374.47;5082504;28;9294;-58
2021/12/27 09:17:04;;;;;;;;;0.00;0.00;;;;;6.48;81.75;98376.34;5082985;28;8914;-59
2021/12/27 09:19:31;;;;;;;;;0.00;0.00;;;;;6.65;81.54;98377.47;5083703;28;8845;-59
2021/12/27 09:22:00;;;;;;;;;4.00;3.80;;;;;6.81;81.42;98378.63;5083942;28;8849;-59
2021/12/27 09:24:28;;;;;;;;;0.80;0.80;;;;;6.95;81.60;98385.31;5085818;28;8834;-58
2021/12/27 09:26:56;;;;;;;;;0.25;0.25;;;;;7.04;81.00;98381.88;5088916;28;8862;-59
2021/12/27 09:29:24;;;;;;;;;1.00;1.00;;;;;7.12;80.88;98376.72;5088930;28;8872;-58
2021/12/27 09:31:51;;;;;;;;;1.00;1.00;;;;;7.20;80.33;98380.31;5088506;28;8848;-58
2021/12/27 09:34:19;;;;;;;;;2.50;1.00;;;;;7.28;80.72;98382.28;5085065;28;8956;-59
2021/12/27 09:36:47;;;;;;;;;1.50;1.00;;;;;7.33;80.58;98386.19;5086147;28;8931;-59
2021/12/27 09:39:15;;;;;;;;;1.00;0.50;;;;;7.38;80.98;98375.16;5083972;28;8861;-58
2021/12/27 09:41:43;;;;;;;;;1.00;1.00;;;;;7.40;80.75;98370.56;5081623;28;8842;-59
2021/12/27 09:44:10;;;;;;;;;0.00;0.00;;;;;7.41;80.76;98365.13;5087453;28;8846;-59
2021/12/27 09:46:39;;;;;;;;;1.00;1.00;;;;;7.42;80.60;98358.03;5083987;28;8987;-59
2021/12/27 09:49:06;;;;;;;;;1.50;1.00;;;;;7.45;80.89;98352.44;5084640;28;8852;-59
2021/12/27 09:51:37;;;;;;;;;0.50;0.50;;;;;7.51;80.51;98357.19;5088030;28;8858;-59
2021/12/27 09:54:05;;;;;;;;;1.00;1.00;;;;;7.60;80.49;98353.69;5083795;28;8878;-59
2021/12/27 09:56:32;;;;;;;;;0.00;0.00;;;;;7.83;79.83;98338.13;5085227;28;8842;-59
2021/12/27 09:59:01;;;;;;;;;0.00;0.00;;;;;8.13;79.20;98340.53;5083218;28;8778;-59
2021/12/27 10:01:29;;;;;;;;;0.00;0.00;;;;;8.53;78.33;98333.09;5085284;28;8866;-59
2021/12/27 10:03:56;;;;;;;;;0.00;0.00;;;;;9.11;77.02;98331.69;5084747;28;8872;-60
2021/12/27 10:06:26;;;;;;;;;0.00;0.00;;;;;9.73;76.07;98320.88;5086105;28;9666;-59
2021/12/27 10:08:54;;;;;;;;;0.50;0.50;;;;;10.37;75.09;98318.59;5081793;28;9230;-60
2021/12/27 10:11:22;;;;;;;;;0.50;0.50;;;;;10.77;74.07;98309.91;5085185;28;8858;-60
2021/12/27 10:13:50;;;;;;;;;0.75;0.75;;;;;10.76;74.27;98302.94;5084244;28;8830;-57
2021/12/27 10:16:18;;;;;;;;;1.00;1.00;;;;;10.56;74.75;98307.69;5082888;28;8912;-60
2021/12/27 10:18:45;;;;;;;;;5.00;4.50;;;;;10.79;74.90;98295.44;5081815;28;8846;-59
2021/12/27 10:21:13;;;;;;;;;3.00;3.00;;;;;11.14;74.48;98287.13;5085974;28;8838;-59
2021/12/27 10:23:41;;;;;;;;;1.00;1.00;;;;;11.47;74.19;98286.16;5082351;28;8845;-58
2021/12/27 10:26:09;;;;;;;;;3.50;3.50;;;;;11.80;73.24;98287.78;5082611;28;8838;-58
2021/12/27 10:28:37;;;;;;;;;0.00;0.00;;;;;11.94;72.25;98273.75;5082757;28;8888;-57
2021/12/27 10:31:04;;;;;;;;;0.25;0.25;;;;;11.78;72.71;98276.47;5082976;28;8853;-58
2021/12/27 10:33:33;;;;;;;;;0.50;0.50;;;;;11.89;72.65;98281.41;5080304;28;9743;-58
2021/12/27 10:36:01;;;;;;;;;1.00;1.00;;;;;11.86;72.90;98280.94;5085390;28;8850;-59
2021/12/27 10:38:29;;;;;;;;;1.00;1.00;;;;;11.67;73.31;98284.81;5080177;28;8872;-57
2021/12/27 10:40:56;;;;;;;;;2.00;1.00;;;;;11.65;72.97;98288.63;5080147;28;8838;-57
2021/12/27 10:43:24;;;;;;;;;2.25;2.00;;;;;11.92;73.01;98277.59;5080562;28;8911;-56
2021/12/27 10:45:51;;;;;;;;;0.25;0.25;;;;;12.26;72.29;98279.81;5082631;28;9571;-57
2021/12/27 10:48:19;;;;;;;;;2.00;1.50;;;;;12.36;72.53;98287.59;5084491;28;8846;-57
2021/12/27 10:50:47;;;;;;;;;0.00;0.00;;;;;12.59;71.94;98280.47;5080732;28;8860;-58
2021/12/27 10:53:15;;;;;;;;;3.00;2.00;;;;;13.34;70.81;98279.63;5080057;28;8883;-57
2021/12/27 10:55:44;;;;;;;;;3.00;3.00;;;;;14.06;69.17;98262.88;5084822;28;8842;-58
2021/12/27 10:58:13;;;;;;;;;1.00;1.00;;;;;14.32;68.47;98269.44;5081782;28;8951;-57
2021/12/27 11:00:40;;;;;;;;;1.00;1.00;;;;;13.93;69.17;98263.50;5081123;28;8834;-57
2021/12/27 11:03:08;;;;;;;;;1.50;1.50;;;;;13.27;70.89;98278.69;5079804;28;8865;-57
2021/12/27 11:05:36;;;;;;;;;0.75;0.50;;;;;12.56;72.56;98278.16;5079052;28;8846;-57
2021/12/27 11:08:05;;;;;;;;;0.00;0.00;;;;;11.96;73.85;98285.06;5079944;28;9488;-57
2021/12/27 11:10:33;;;;;;;;;0.25;0.25;;;;;11.52;75.12;98286.47;5081182;28;8853;-57
2021/12/27 11:13:01;;;;;;;;;0.50;0.50;;;;;11.24;76.11;98286.97;5082992;28;8834;-58
2021/12/27 11:15:28;;;;;;;;;3.00;1.00;;;;;11.09;75.94;98286.78;5082161;28;8862;-57
2021/12/27 11:17:56;;;;;;;;;5.00;4.25;;;;;10.96;76.43;98281.16;5081081;28;8839;-57
2021/12/27 11:20:26;;;;;;;;;10.50;9.25;;;;;10.82;76.74;98272.97;5082271;28;8849;-57
2021/12/27 11:22:54;;;;;;;;;7.00;5.00;;;;;10.61;76.97;98275.28;5080941;28;8862;-57
2021/12/27 11:25:24;;;;;;;;;24.75;21.50;;;;;10.38;77.42;98267.03;5081310;28;8838;-57
2021/12/27 11:27:52;;;;;;;;;13.00;11.25;;;;;10.26;77.36;98263.00;5083368;28;9472;-57
2021/12/27 11:30:23;;;;;;;;;12.50;9.50;;;;;10.15;77.28;98258.00;5082799;28;8846;-57
2021/12/27 11:32:50;;;;;;;;;1.00;1.00;;;;;9.99;77.66;98259.72;5083230;28;8942;-57
2021/12/27 11:35:22;;;;;;;;;17.00;15.50;;;;;9.84;78.15;98253.31;5083281;28;8884;-57
2021/12/27 11:37:51;;;;;;;;;13.00;10.00;;;;;10.08;77.66;98254.31;5083895;28;8846;-57
2021/12/27 11:40:18;;;;;;;;;27.25;23.00;;;;;10.51;76.32;98242.63;5081468;28;8854;-57
2021/12/27 11:42:46;;;;;;;;;10.75;8.75;;;;;10.93;75.33;98246.84;5081088;28;8853;-57
2021/12/27 11:45:14;;;;;;;;;5.00;4.00;;;;;11.25;75.02;98244.19;5080332;28;8848;-57
2021/12/27 11:47:42;;;;;;;;;5.50;4.50;;;;;11.34;74.74;98243.19;5080573;28;8846;-57
2021/12/27 11:50:14;;;;;;;;;1.50;1.50;;;;;11.35;74.60;98250.16;5077389;28;8884;-57
2021/12/27 11:52:47;;;;;;;;;1.00;1.00;;;;;11.39;74.40;98245.34;5082576;28;8857;-57